Ashotsk, Armenia

02:09 PM AMT die 26o August, anno 2016 (GMT +0400)
Gyumri Shirak Airport | | Change Station

Elev 5000 ft 40.75 °N, 43.86 °E | Updated 9 minutes ago

Partly Cloudy
Partialiter Nubila
86 °F
Feels Like 86 °F
N
2
Ventus Variabilis Ventus from Variabilis

Hodie
High -- | Low -- °F
--% Chance of Precip.
Yesterday
High -- | Low -- °F
Precip. -- in
Pressio 30.09 in
Visibilitas 6.2 milia passuum
Clouds Few 4900 ft
Frigus in quo Ros apparet 41 °F
Umor 20%
Rainfall 0.00 in
Snow Depth Not available.
6:25 AM 7:46 PM
Last Quarter, 36% visible
METAR UDSG 261000Z VRB02KT 9999 FEW049CB 30/05 Q1019 R02/CLRD70 NOSIG
Pressio 30.09 in
Visibilitas 6.2 milia passuum
Clouds Few 4900 ft
Frigus in quo Ros apparet 41 °F
Umor 20%
Rainfall 0.00 in
Snow Depth Not available.
6:25 AM 7:46 PM
Last Quarter, 36% visible
METAR UDSG 261000Z VRB02KT 9999 FEW049CB 30/05 Q1019 R02/CLRD70 NOSIG

10-Day Weather Forecast

×

Almanac

Astronomy

Aug. 26, 2016 Rise Set
Actual Time
Civil Twilight
Nautical Twilight
Astronomical Twilight
Moon
Length Of Visible Light
Length of Day
Tomorrow will be .
, % of the Moon is Illuminated

Today's Extremes

Country Highs Country Lows

Community

WunderPhotos

Upload Photos

1,935,069 photos uploaded!

WunderBlog® & News

Nearby

Air Quality

  Air Quality AQ Index Pollutant
Not available.

Snow Depth

Station Depth Elevation

Earthquake Activity

City Distance Mag. Time & Date
Minimum magnitude displayed is 2.5.

Coastal Water Temperatures

Locus Calor

Stations

Nearby Weather Stations

Station Location Temp Frigus Venti Frigus in quo Ros apparet Umor Ventus Precip. Elev Renovata Type